sensor_id;sensor_type;location;lat;lon;timestamp;temperature;humidity
26035;DHT22;13809;48.632;11.576;2024-02-26T00:01:06;8.60;33.80
26035;DHT22;13809;48.632;11.576;2024-02-26T00:06:09;8.60;33.70
26035;DHT22;13809;48.632;11.576;2024-02-26T00:11:14;8.60;33.70
26035;DHT22;13809;48.632;11.576;2024-02-26T00:16:17;8.50;33.70
26035;DHT22;13809;48.632;11.576;2024-02-26T00:21:20;8.50;33.60
26035;DHT22;13809;48.632;11.576;2024-02-26T00:26:25;8.50;33.70
26035;DHT22;13809;48.632;11.576;2024-02-26T00:31:28;8.40;33.90
26035;DHT22;13809;48.632;11.576;2024-02-26T00:36:32;8.40;33.80
26035;DHT22;13809;48.632;11.576;2024-02-26T00:41:40;8.40;33.70
26035;DHT22;13809;48.632;11.576;2024-02-26T00:46:43;8.40;34.30
26035;DHT22;13809;48.632;11.576;2024-02-26T00:51:46;8.30;33.80
26035;DHT22;13809;48.632;11.576;2024-02-26T00:56:51;8.30;33.60
26035;DHT22;13809;48.632;11.576;2024-02-26T01:01:54;8.30;33.70
26035;DHT22;13809;48.632;11.576;2024-02-26T01:06:57;8.20;33.40
26035;DHT22;13809;48.632;11.576;2024-02-26T01:12:03;8.20;34.30
26035;DHT22;13809;48.632;11.576;2024-02-26T01:17:06;8.10;33.70
26035;DHT22;13809;48.632;11.576;2024-02-26T01:22:09;8.10;33.70
26035;DHT22;13809;48.632;11.576;2024-02-26T01:27:14;8.00;33.70
26035;DHT22;13809;48.632;11.576;2024-02-26T01:32:18;8.00;33.80
26035;DHT22;13809;48.632;11.576;2024-02-26T01:37:21;7.90;33.50
26035;DHT22;13809;48.632;11.576;2024-02-26T01:42:26;7.90;33.60
26035;DHT22;13809;48.632;11.576;2024-02-26T01:47:29;7.80;33.80
26035;DHT22;13809;48.632;11.576;2024-02-26T01:52:32;7.80;33.70
26035;DHT22;13809;48.632;11.576;2024-02-26T01:57:37;7.70;33.70
26035;DHT22;13809;48.632;11.576;2024-02-26T02:02:41;7.70;33.90
26035;DHT22;13809;48.632;11.576;2024-02-26T02:07:47;7.60;33.80
26035;DHT22;13809;48.632;11.576;2024-02-26T02:12:52;7.50;33.90
26035;DHT22;13809;48.632;11.576;2024-02-26T02:17:56;7.50;34.10
26035;DHT22;13809;48.632;11.576;2024-02-26T02:23:00;7.50;34.10
26035;DHT22;13809;48.632;11.576;2024-02-26T02:28:04;7.40;34.10
26035;DHT22;13809;48.632;11.576;2024-02-26T02:33:09;7.40;34.10
26035;DHT22;13809;48.632;11.576;2024-02-26T02:38:16;7.40;34.10
26035;DHT22;13809;48.632;11.576;2024-02-26T02:43:19;7.30;34.20
26035;DHT22;13809;48.632;11.576;2024-02-26T02:48:22;7.30;34.20
26035;DHT22;13809;48.632;11.576;2024-02-26T02:53:27;7.30;34.30
26035;DHT22;13809;48.632;11.576;2024-02-26T02:58:30;7.20;34.40
26035;DHT22;13809;48.632;11.576;2024-02-26T03:03:33;7.20;34.20
26035;DHT22;13809;48.632;11.576;2024-02-26T03:08:39;7.20;34.40
26035;DHT22;13809;48.632;11.576;2024-02-26T03:13:44;7.10;34.50
26035;DHT22;13809;48.632;11.576;2024-02-26T03:18:47;7.00;34.40
26035;DHT22;13809;48.632;11.576;2024-02-26T03:23:52;7.00;34.50
26035;DHT22;13809;48.632;11.576;2024-02-26T03:28:55;6.90;34.80
26035;DHT22;13809;48.632;11.576;2024-02-26T03:33:58;6.90;34.80
26035;DHT22;13809;48.632;11.576;2024-02-26T03:39:03;6.90;34.90
26035;DHT22;13809;48.632;11.576;2024-02-26T03:44:09;6.90;35.10
26035;DHT22;13809;48.632;11.576;2024-02-26T03:49:13;6.90;34.90
26035;DHT22;13809;48.632;11.576;2024-02-26T03:54:17;6.80;34.90
26035;DHT22;13809;48.632;11.576;2024-02-26T03:59:21;6.80;35.30
26035;DHT22;13809;48.632;11.576;2024-02-26T04:04:26;6.90;35.30
26035;DHT22;13809;48.632;11.576;2024-02-26T04:09:32;6.90;35.30
26035;DHT22;13809;48.632;11.576;2024-02-26T04:14:36;6.90;35.80
26035;DHT22;13809;48.632;11.576;2024-02-26T04:19:40;6.90;35.50
26035;DHT22;13809;48.632;11.576;2024-02-26T04:24:44;6.90;35.50
26035;DHT22;13809;48.632;11.576;2024-02-26T04:29:48;6.90;35.70
26035;DHT22;13809;48.632;11.576;2024-02-26T04:34:51;7.00;35.40
26035;DHT22;13809;48.632;11.576;2024-02-26T04:39:57;7.00;35.50
26035;DHT22;13809;48.632;11.576;2024-02-26T04:45:00;6.90;35.60
26035;DHT22;13809;48.632;11.576;2024-02-26T04:50:04;6.90;35.50
26035;DHT22;13809;48.632;11.576;2024-02-26T04:55:09;6.90;35.60
26035;DHT22;13809;48.632;11.576;2024-02-26T05:00:14;6.90;35.80
26035;DHT22;13809;48.632;11.576;2024-02-26T05:05:17;6.90;35.60
26035;DHT22;13809;48.632;11.576;2024-02-26T05:10:22;6.90;35.60
26035;DHT22;13809;48.632;11.576;2024-02-26T05:15:26;6.90;35.80
26035;DHT22;13809;48.632;11.576;2024-02-26T05:20:29;6.90;35.50
26035;DHT22;13809;48.632;11.576;2024-02-26T05:25:34;6.80;35.50
26035;DHT22;13809;48.632;11.576;2024-02-26T05:30:38;6.80;35.80
26035;DHT22;13809;48.632;11.576;2024-02-26T05:35:42;6.80;35.80
26035;DHT22;13809;48.632;11.576;2024-02-26T05:40:46;6.80;36.00
26035;DHT22;13809;48.632;11.576;2024-02-26T05:45:50;6.80;36.20
26035;DHT22;13809;48.632;11.576;2024-02-26T05:50:53;6.80;36.10
26035;DHT22;13809;48.632;11.576;2024-02-26T05:55:58;6.90;36.10
26035;DHT22;13809;48.632;11.576;2024-02-26T06:01:02;6.90;36.40
26035;DHT22;13809;48.632;11.576;2024-02-26T06:06:06;6.90;36.00
26035;DHT22;13809;48.632;11.576;2024-02-26T06:11:11;6.90;36.10
26035;DHT22;13809;48.632;11.576;2024-02-26T06:16:14;6.90;36.30
26035;DHT22;13809;48.632;11.576;2024-02-26T06:21:18;6.90;36.10
26035;DHT22;13809;48.632;11.576;2024-02-26T06:26:22;6.90;36.70
26035;DHT22;13809;48.632;11.576;2024-02-26T06:31:25;7.00;37.50
26035;DHT22;13809;48.632;11.576;2024-02-26T06:36:29;7.10;37.10
26035;DHT22;13809;48.632;11.576;2024-02-26T06:41:35;7.10;36.70
26035;DHT22;13809;48.632;11.576;2024-02-26T06:46:40;7.10;36.80
26035;DHT22;13809;48.632;11.576;2024-02-26T06:51:43;7.10;36.50
26035;DHT22;13809;48.632;11.576;2024-02-26T06:56:48;7.10;36.50
26035;DHT22;13809;48.632;11.576;2024-02-26T07:01:51;7.10;36.80
26035;DHT22;13809;48.632;11.576;2024-02-26T07:06:57;7.10;36.70
26035;DHT22;13809;48.632;11.576;2024-02-26T07:12:02;7.10;36.80
26035;DHT22;13809;48.632;11.576;2024-02-26T07:17:05;7.10;37.10
26035;DHT22;13809;48.632;11.576;2024-02-26T07:22:09;7.10;36.90
26035;DHT22;13809;48.632;11.576;2024-02-26T07:27:13;7.10;37.20
26035;DHT22;13809;48.632;11.576;2024-02-26T07:32:19;7.20;37.30
26035;DHT22;13809;48.632;11.576;2024-02-26T07:37:23;7.20;37.00
26035;DHT22;13809;48.632;11.576;2024-02-26T07:42:27;7.30;37.20
26035;DHT22;13809;48.632;11.576;2024-02-26T07:47:31;7.30;37.40
26035;DHT22;13809;48.632;11.576;2024-02-26T07:52:36;7.40;37.30
26035;DHT22;13809;48.632;11.576;2024-02-26T07:57:43;7.40;37.70
26035;DHT22;13809;48.632;11.576;2024-02-26T08:02:46;7.50;39.00
26035;DHT22;13809;48.632;11.576;2024-02-26T08:07:49;7.60;37.60
26035;DHT22;13809;48.632;11.576;2024-02-26T08:12:55;7.60;37.80
26035;DHT22;13809;48.632;11.576;2024-02-26T08:18:06;7.80;38.40
26035;DHT22;13809;48.632;11.576;2024-02-26T08:23:10;7.90;38.20
26035;DHT22;13809;48.632;11.576;2024-02-26T08:28:14;8.00;38.20
26035;DHT22;13809;48.632;11.576;2024-02-26T08:33:19;8.10;38.40
26035;DHT22;13809;48.632;11.576;2024-02-26T08:38:23;8.20;37.80
26035;DHT22;13809;48.632;11.576;2024-02-26T08:43:28;8.20;37.80
26035;DHT22;13809;48.632;11.576;2024-02-26T08:48:31;8.30;38.10
26035;DHT22;13809;48.632;11.576;2024-02-26T08:53:35;8.40;37.90
26035;DHT22;13809;48.632;11.576;2024-02-26T08:58:46;8.40;37.80
26035;DHT22;13809;48.632;11.576;2024-02-26T09:03:51;8.50;38.20
26035;DHT22;13809;48.632;11.576;2024-02-26T09:08:54;8.50;38.10
26035;DHT22;13809;48.632;11.576;2024-02-26T09:14:03;8.60;38.40
26035;DHT22;13809;48.632;11.576;2024-02-26T09:19:07;8.70;38.80
26035;DHT22;13809;48.632;11.576;2024-02-26T09:24:10;8.80;38.70
26035;DHT22;13809;48.632;11.576;2024-02-26T09:29:15;8.80;38.60
26035;DHT22;13809;48.632;11.576;2024-02-26T09:34:19;8.90;38.90
26035;DHT22;13809;48.632;11.576;2024-02-26T09:39:22;9.00;38.60
26035;DHT22;13809;48.632;11.576;2024-02-26T09:44:29;9.10;38.40
26035;DHT22;13809;48.632;11.576;2024-02-26T09:49:36;9.10;38.70
26035;DHT22;13809;48.632;11.576;2024-02-26T09:54:40;9.20;38.40
26035;DHT22;13809;48.632;11.576;2024-02-26T09:59:47;9.30;38.30
26035;DHT22;13809;48.632;11.576;2024-02-26T10:04:52;9.50;38.70
26035;DHT22;13809;48.632;11.576;2024-02-26T10:09:58;9.60;38.10
26035;DHT22;13809;48.632;11.576;2024-02-26T10:15:05;9.70;38.90
26035;DHT22;13809;48.632;11.576;2024-02-26T10:20:12;10.00;37.50
26035;DHT22;13809;48.632;11.576;2024-02-26T10:25:17;10.10;37.50
26035;DHT22;13809;48.632;11.576;2024-02-26T10:30:22;10.30;37.50
26035;DHT22;13809;48.632;11.576;2024-02-26T10:35:27;10.50;37.40
26035;DHT22;13809;48.632;11.576;2024-02-26T10:40:33;10.70;37.30
26035;DHT22;13809;48.632;11.576;2024-02-26T10:45:37;10.80;36.90
26035;DHT22;13809;48.632;11.576;2024-02-26T10:50:44;11.00;36.80
26035;DHT22;13809;48.632;11.576;2024-02-26T10:55:49;11.10;36.90
26035;DHT22;13809;48.632;11.576;2024-02-26T11:00:57;11.20;36.90
26035;DHT22;13809;48.632;11.576;2024-02-26T11:06:01;11.30;36.90
26035;DHT22;13809;48.632;11.576;2024-02-26T11:11:05;11.40;36.60
26035;DHT22;13809;48.632;11.576;2024-02-26T11:16:10;11.40;36.50
26035;DHT22;13809;48.632;11.576;2024-02-26T11:21:15;11.60;36.60
26035;DHT22;13809;48.632;11.576;2024-02-26T11:26:20;11.70;36.20
26035;DHT22;13809;48.632;11.576;2024-02-26T11:31:26;11.80;36.40
26035;DHT22;13809;48.632;11.576;2024-02-26T11:36:29;12.00;36.20
26035;DHT22;13809;48.632;11.576;2024-02-26T11:41:33;12.10;36.20
26035;DHT22;13809;48.632;11.576;2024-02-26T11:46:41;12.30;36.10
26035;DHT22;13809;48.632;11.576;2024-02-26T11:51:51;12.50;35.50
26035;DHT22;13809;48.632;11.576;2024-02-26T11:56:58;12.70;34.90
26035;DHT22;13809;48.632;11.576;2024-02-26T12:02:02;12.90;34.80
26035;DHT22;13809;48.632;11.576;2024-02-26T12:07:06;13.00;34.60
26035;DHT22;13809;48.632;11.576;2024-02-26T12:12:10;13.20;34.80
26035;DHT22;13809;48.632;11.576;2024-02-26T12:17:22;13.30;34.50
26035;DHT22;13809;48.632;11.576;2024-02-26T12:22:25;13.50;33.80
26035;DHT22;13809;48.632;11.576;2024-02-26T12:27:30;13.60;34.30
26035;DHT22;13809;48.632;11.576;2024-02-26T12:32:36;13.80;34.40
26035;DHT22;13809;48.632;11.576;2024-02-26T12:37:39;13.90;33.90
26035;DHT22;13809;48.632;11.576;2024-02-26T12:42:45;14.00;34.80
26035;DHT22;13809;48.632;11.576;2024-02-26T12:47:50;14.10;33.90
26035;DHT22;13809;48.632;11.576;2024-02-26T12:52:54;14.30;34.10
26035;DHT22;13809;48.632;11.576;2024-02-26T12:57:58;14.30;33.40
26035;DHT22;13809;48.632;11.576;2024-02-26T13:03:03;14.40;33.30
26035;DHT22;13809;48.632;11.576;2024-02-26T13:08:07;14.40;32.90
26035;DHT22;13809;48.632;11.576;2024-02-26T13:13:10;14.50;33.20
26035;DHT22;13809;48.632;11.576;2024-02-26T13:18:15;14.50;33.10
26035;DHT22;13809;48.632;11.576;2024-02-26T13:23:20;14.60;32.70
26035;DHT22;13809;48.632;11.576;2024-02-26T13:28:23;14.70;32.70
26035;DHT22;13809;48.632;11.576;2024-02-26T13:33:30;14.80;32.60
26035;DHT22;13809;48.632;11.576;2024-02-26T13:38:34;14.80;31.90
26035;DHT22;13809;48.632;11.576;2024-02-26T13:43:37;14.90;32.00
26035;DHT22;13809;48.632;11.576;2024-02-26T13:48:42;15.00;32.10
26035;DHT22;13809;48.632;11.576;2024-02-26T13:53:45;15.00;31.30
26035;DHT22;13809;48.632;11.576;2024-02-26T13:58:49;15.10;31.80
26035;DHT22;13809;48.632;11.576;2024-02-26T14:03:54;15.10;31.90
26035;DHT22;13809;48.632;11.576;2024-02-26T14:08:59;15.20;31.10
26035;DHT22;13809;48.632;11.576;2024-02-26T14:14:03;15.30;31.10
26035;DHT22;13809;48.632;11.576;2024-02-26T14:19:08;15.30;31.30
26035;DHT22;13809;48.632;11.576;2024-02-26T14:24:15;15.40;30.80
26035;DHT22;13809;48.632;11.576;2024-02-26T14:29:18;15.40;31.50
26035;DHT22;13809;48.632;11.576;2024-02-26T14:34:23;15.40;31.90
26035;DHT22;13809;48.632;11.576;2024-02-26T14:39:26;15.40;30.70
26035;DHT22;13809;48.632;11.576;2024-02-26T14:44:31;15.40;30.90
26035;DHT22;13809;48.632;11.576;2024-02-26T14:49:35;15.50;31.50
26035;DHT22;13809;48.632;11.576;2024-02-26T14:54:39;15.50;31.00
26035;DHT22;13809;48.632;11.576;2024-02-26T14:59:43;15.50;31.10
26035;DHT22;13809;48.632;11.576;2024-02-26T15:04:48;15.50;30.80
26035;DHT22;13809;48.632;11.576;2024-02-26T15:09:51;15.50;30.90
26035;DHT22;13809;48.632;11.576;2024-02-26T15:14:59;15.50;31.10
26035;DHT22;13809;48.632;11.576;2024-02-26T15:20:05;15.50;30.50
26035;DHT22;13809;48.632;11.576;2024-02-26T15:25:11;15.50;29.90
26035;DHT22;13809;48.632;11.576;2024-02-26T15:30:17;15.50;30.20
26035;DHT22;13809;48.632;11.576;2024-02-26T15:35:22;15.50;30.80
26035;DHT22;13809;48.632;11.576;2024-02-26T15:40:25;15.40;30.90
26035;DHT22;13809;48.632;11.576;2024-02-26T15:45:28;15.40;31.30
26035;DHT22;13809;48.632;11.576;2024-02-26T15:50:36;15.40;31.40
26035;DHT22;13809;48.632;11.576;2024-02-26T15:55:43;15.30;31.30
26035;DHT22;13809;48.632;11.576;2024-02-26T16:00:47;15.30;31.60
26035;DHT22;13809;48.632;11.576;2024-02-26T16:05:53;15.20;31.60
26035;DHT22;13809;48.632;11.576;2024-02-26T16:10:56;15.10;31.50
26035;DHT22;13809;48.632;11.576;2024-02-26T16:16:02;15.00;31.90
26035;DHT22;13809;48.632;11.576;2024-02-26T16:21:09;15.00;31.70
26035;DHT22;13809;48.632;11.576;2024-02-26T16:26:12;14.90;32.00
26035;DHT22;13809;48.632;11.576;2024-02-26T16:31:15;14.80;31.90
26035;DHT22;13809;48.632;11.576;2024-02-26T16:36:20;14.80;31.90
26035;DHT22;13809;48.632;11.576;2024-02-26T16:41:23;14.80;31.90
26035;DHT22;13809;48.632;11.576;2024-02-26T16:46:27;14.70;31.80
26035;DHT22;13809;48.632;11.576;2024-02-26T16:51:31;14.70;31.80
26035;DHT22;13809;48.632;11.576;2024-02-26T16:56:35;14.60;31.80
26035;DHT22;13809;48.632;11.576;2024-02-26T17:01:38;14.60;31.80
26035;DHT22;13809;48.632;11.576;2024-02-26T17:06:43;14.50;32.40
26035;DHT22;13809;48.632;11.576;2024-02-26T17:11:47;14.40;31.60
26035;DHT22;13809;48.632;11.576;2024-02-26T17:16:50;14.30;31.50
26035;DHT22;13809;48.632;11.576;2024-02-26T17:21:54;14.30;31.50
26035;DHT22;13809;48.632;11.576;2024-02-26T17:26:58;14.20;31.50
26035;DHT22;13809;48.632;11.576;2024-02-26T17:32:01;14.10;31.60
26035;DHT22;13809;48.632;11.576;2024-02-26T17:37:13;14.00;31.60
26035;DHT22;13809;48.632;11.576;2024-02-26T17:42:16;14.00;31.60
26035;DHT22;13809;48.632;11.576;2024-02-26T17:47:20;13.90;31.70
26035;DHT22;13809;48.632;11.576;2024-02-26T17:52:24;13.90;31.70
26035;DHT22;13809;48.632;11.576;2024-02-26T17:57:28;13.80;31.50
26035;DHT22;13809;48.632;11.576;2024-02-26T18:02:31;13.80;31.50
26035;DHT22;13809;48.632;11.576;2024-02-26T18:07:35;13.70;31.40
26035;DHT22;13809;48.632;11.576;2024-02-26T18:12:39;13.70;31.40
26035;DHT22;13809;48.632;11.576;2024-02-26T18:17:43;13.70;31.60
26035;DHT22;13809;48.632;11.576;2024-02-26T18:22:50;13.70;31.50
26035;DHT22;13809;48.632;11.576;2024-02-26T18:27:53;13.60;31.00
26035;DHT22;13809;48.632;11.576;2024-02-26T18:32:56;13.60;31.30
26035;DHT22;13809;48.632;11.576;2024-02-26T18:38:01;13.60;31.30
26035;DHT22;13809;48.632;11.576;2024-02-26T18:43:05;13.60;30.90
26035;DHT22;13809;48.632;11.576;2024-02-26T18:48:08;13.60;31.00
26035;DHT22;13809;48.632;11.576;2024-02-26T18:53:13;13.60;31.20
26035;DHT22;13809;48.632;11.576;2024-02-26T18:58:16;13.50;30.90
26035;DHT22;13809;48.632;11.576;2024-02-26T19:03:20;13.50;31.20
26035;DHT22;13809;48.632;11.576;2024-02-26T19:08:24;13.50;31.50
26035;DHT22;13809;48.632;11.576;2024-02-26T19:13:28;13.40;31.30
26035;DHT22;13809;48.632;11.576;2024-02-26T19:18:31;13.40;31.30
26035;DHT22;13809;48.632;11.576;2024-02-26T19:23:36;13.30;31.20
26035;DHT22;13809;48.632;11.576;2024-02-26T19:28:39;13.20;31.30
26035;DHT22;13809;48.632;11.576;2024-02-26T19:33:46;13.20;31.40
26035;DHT22;13809;48.632;11.576;2024-02-26T19:38:51;13.20;31.50
26035;DHT22;13809;48.632;11.576;2024-02-26T19:43:54;13.10;31.50
26035;DHT22;13809;48.632;11.576;2024-02-26T19:48:57;13.00;31.30
26035;DHT22;13809;48.632;11.576;2024-02-26T19:54:04;13.00;31.40
26035;DHT22;13809;48.632;11.576;2024-02-26T19:59:08;12.90;31.40
26035;DHT22;13809;48.632;11.576;2024-02-26T20:04:11;12.80;31.30
26035;DHT22;13809;48.632;11.576;2024-02-26T20:09:17;12.70;31.50
26035;DHT22;13809;48.632;11.576;2024-02-26T20:14:21;12.60;31.60
26035;DHT22;13809;48.632;11.576;2024-02-26T20:19:28;12.50;31.60
26035;DHT22;13809;48.632;11.576;2024-02-26T20:24:33;12.40;31.80
26035;DHT22;13809;48.632;11.576;2024-02-26T20:29:36;12.30;31.90
26035;DHT22;13809;48.632;11.576;2024-02-26T20:34:40;12.30;31.90
26035;DHT22;13809;48.632;11.576;2024-02-26T20:39:45;12.20;31.80
26035;DHT22;13809;48.632;11.576;2024-02-26T20:44:49;12.20;31.90
26035;DHT22;13809;48.632;11.576;2024-02-26T20:49:52;12.10;31.80
26035;DHT22;13809;48.632;11.576;2024-02-26T20:54:57;12.10;31.90
26035;DHT22;13809;48.632;11.576;2024-02-26T21:00:00;12.00;31.80
26035;DHT22;13809;48.632;11.576;2024-02-26T21:05:04;12.00;31.90
26035;DHT22;13809;48.632;11.576;2024-02-26T21:10:09;11.90;31.90
26035;DHT22;13809;48.632;11.576;2024-02-26T21:15:14;11.80;31.80
26035;DHT22;13809;48.632;11.576;2024-02-26T21:20:18;11.80;31.70
26035;DHT22;13809;48.632;11.576;2024-02-26T21:25:23;11.70;31.80
26035;DHT22;13809;48.632;11.576;2024-02-26T21:30:27;11.60;31.90
26035;DHT22;13809;48.632;11.576;2024-02-26T21:35:30;11.60;32.00
26035;DHT22;13809;48.632;11.576;2024-02-26T21:40:37;11.50;31.90
26035;DHT22;13809;48.632;11.576;2024-02-26T21:45:41;11.50;32.00
26035;DHT22;13809;48.632;11.576;2024-02-26T21:50:44;11.40;31.90
26035;DHT22;13809;48.632;11.576;2024-02-26T21:55:49;11.40;31.80
26035;DHT22;13809;48.632;11.576;2024-02-26T22:00:52;11.30;31.90
26035;DHT22;13809;48.632;11.576;2024-02-26T22:05:56;11.20;31.80
26035;DHT22;13809;48.632;11.576;2024-02-26T22:11:01;11.10;31.80
26035;DHT22;13809;48.632;11.576;2024-02-26T22:16:05;11.10;32.00
26035;DHT22;13809;48.632;11.576;2024-02-26T22:21:08;11.00;32.00
26035;DHT22;13809;48.632;11.576;2024-02-26T22:26:15;10.90;32.00
26035;DHT22;13809;48.632;11.576;2024-02-26T22:31:18;10.90;32.10
26035;DHT22;13809;48.632;11.576;2024-02-26T22:36:21;10.80;32.00
26035;DHT22;13809;48.632;11.576;2024-02-26T22:41:26;10.80;32.20
26035;DHT22;13809;48.632;11.576;2024-02-26T22:46:29;10.70;32.20
26035;DHT22;13809;48.632;11.576;2024-02-26T22:51:32;10.60;32.10
26035;DHT22;13809;48.632;11.576;2024-02-26T22:56:37;10.60;32.30
26035;DHT22;13809;48.632;11.576;2024-02-26T23:01:40;10.50;32.40
26035;DHT22;13809;48.632;11.576;2024-02-26T23:06:43;10.50;32.40
26035;DHT22;13809;48.632;11.576;2024-02-26T23:11:48;10.50;32.40
26035;DHT22;13809;48.632;11.576;2024-02-26T23:16:51;10.40;32.30
26035;DHT22;13809;48.632;11.576;2024-02-26T23:21:54;10.30;32.30
26035;DHT22;13809;48.632;11.576;2024-02-26T23:26:59;10.20;32.10
26035;DHT22;13809;48.632;11.576;2024-02-26T23:32:02;10.10;32.50
26035;DHT22;13809;48.632;11.576;2024-02-26T23:37:06;10.00;33.30
26035;DHT22;13809;48.632;11.576;2024-02-26T23:42:10;9.90;33.60
26035;DHT22;13809;48.632;11.576;2024-02-26T23:47:14;9.90;34.00
26035;DHT22;13809;48.632;11.576;2024-02-26T23:52:17;9.80;33.90
26035;DHT22;13809;48.632;11.576;2024-02-26T23:57:22;9.90;34.10
